Flo, Texas
Current Conditions -  °F | °C
As of 2:55 PM on Tuesday 21 Oct 2014 (Local Time) from KLXY Reporting Station
Clear Clear  
Wind Chill: 80°   Ceiling: Unl
Heat Index: 80°   Visibility: 10mi
Dew Point: 56°   Wind: 8mph
Humidity: 45%   Direction: 130°SE
Pressure: 30.03"   Gusts: NA
Location:  31.4723°N, 96.0615°W
Report Text: KLXY 211955Z AUTO 13007KT 10SM CLR 26/14 A3003 RMK AO2 T02640136
Loading
Personal Weather Stations






























Interactive Weather Map
Tropical Storm Tracking
New forecast layout! Learn more

10-Day Weather Forecast

Advertisements
Track Severe Weather on mobile